Seven Mile Ford, Virginia
Current Conditions -  °F | °C
As of 1:35 PM on Monday 20 Oct 2014 (Local Time) from KMKJ Reporting Station
Clear Clear  
Wind Chill: 61°   Ceiling: Unl
Heat Index: 61°   Visibility: 10mi
Dew Point: 44°   Wind: 14mph
Humidity: 53%   Direction: 260°W
Pressure: 30.06"   Gusts: 25mph
Location:  36.81°N, 81.63°W
Report Text: KMKJ 201735Z AUTO 26012G22KT 10SM CLR 16/07 A3006 RMK AO2 T01630068
Loading
Personal Weather Stations






























Interactive Weather Map
Tropical Storm Tracking
New forecast layout! Learn more

10-Day Weather Forecast

Advertisements
Track Severe Weather on mobile